sensor_id;sensor_type;location;lat;lon;timestamp;pressure;altitude;pressure_sealevel;temperature;humidity
21555;BME280;10938;44.794;-0.676;2022-10-17T00:01:16;100985.19;;;27.92;47.28
21555;BME280;10938;44.794;-0.676;2022-10-17T00:03:41;100980.69;;;27.59;48.31
21555;BME280;10938;44.794;-0.676;2022-10-17T00:06:09;100996.63;;;27.95;47.69
21555;BME280;10938;44.794;-0.676;2022-10-17T00:08:36;100997.72;;;27.41;48.68
21555;BME280;10938;44.794;-0.676;2022-10-17T00:11:05;100997.47;;;27.29;49.40
21555;BME280;10938;44.794;-0.676;2022-10-17T00:13:32;101002.03;;;28.11;47.23
21555;BME280;10938;44.794;-0.676;2022-10-17T00:15:58;101005.03;;;28.05;46.91
21555;BME280;10938;44.794;-0.676;2022-10-17T00:18:24;100996.28;;;27.34;48.78
21555;BME280;10938;44.794;-0.676;2022-10-17T00:20:50;101005.59;;;27.61;49.12
21555;BME280;10938;44.794;-0.676;2022-10-17T00:23:17;101012.03;;;27.75;47.55
21555;BME280;10938;44.794;-0.676;2022-10-17T00:25:43;101025.84;;;28.80;45.34
21555;BME280;10938;44.794;-0.676;2022-10-17T00:28:12;101029.88;;;28.08;46.54
21555;BME280;10938;44.794;-0.676;2022-10-17T00:30:38;101044.53;;;28.97;45.64
21555;BME280;10938;44.794;-0.676;2022-10-17T00:33:04;101065.34;;;28.93;44.29
21555;BME280;10938;44.794;-0.676;2022-10-17T00:35:30;101108.66;;;28.72;44.60
21555;BME280;10938;44.794;-0.676;2022-10-17T00:37:55;101117.34;;;28.59;45.28
21555;BME280;10938;44.794;-0.676;2022-10-17T00:40:22;101097.53;;;28.62;44.67
21555;BME280;10938;44.794;-0.676;2022-10-17T00:42:48;101094.25;;;29.04;44.13
21555;BME280;10938;44.794;-0.676;2022-10-17T00:45:28;101100.69;;;29.01;44.24
21555;BME280;10938;44.794;-0.676;2022-10-17T00:48:04;101120.41;;;29.00;43.97
21555;BME280;10938;44.794;-0.676;2022-10-17T00:50:35;101129.19;;;29.35;43.08
21555;BME280;10938;44.794;-0.676;2022-10-17T00:53:03;101148.59;;;29.70;41.98
21555;BME280;10938;44.794;-0.676;2022-10-17T00:55:31;101144.13;;;30.14;41.12
21555;BME280;10938;44.794;-0.676;2022-10-17T00:57:59;101148.06;;;30.09;41.10
21555;BME280;10938;44.794;-0.676;2022-10-17T01:00:26;101147.53;;;29.88;41.22
21555;BME280;10938;44.794;-0.676;2022-10-17T01:02:51;101149.00;;;28.53;44.87
21555;BME280;10938;44.794;-0.676;2022-10-17T01:05:17;101133.72;;;28.55;45.12
21555;BME280;10938;44.794;-0.676;2022-10-17T01:07:44;101151.19;;;28.29;45.47
21555;BME280;10938;44.794;-0.676;2022-10-17T01:10:10;101147.19;;;28.53;44.71
21555;BME280;10938;44.794;-0.676;2022-10-17T01:12:47;101154.88;;;28.77;43.66
21555;BME280;10938;44.794;-0.676;2022-10-17T01:15:32;101162.50;;;28.84;42.96
21555;BME280;10938;44.794;-0.676;2022-10-17T01:23:35;101187.38;;;29.50;41.88
21555;BME280;10938;44.794;-0.676;2022-10-17T01:26:15;101201.66;;;29.67;41.38
21555;BME280;10938;44.794;-0.676;2022-10-17T01:34:38;101228.28;;;29.71;41.39
21555;BME280;10938;44.794;-0.676;2022-10-17T01:37:19;101228.34;;;29.70;41.29
21555;BME280;10938;44.794;-0.676;2022-10-17T01:39:49;101229.50;;;30.11;39.94
21555;BME280;10938;44.794;-0.676;2022-10-17T01:47:15;101242.50;;;29.26;42.52
21555;BME280;10938;44.794;-0.676;2022-10-17T01:49:44;101250.72;;;29.86;41.13
21555;BME280;10938;44.794;-0.676;2022-10-17T01:52:14;101261.72;;;30.42;39.69
21555;BME280;10938;44.794;-0.676;2022-10-17T01:54:48;101250.38;;;29.13;42.16
21555;BME280;10938;44.794;-0.676;2022-10-17T01:57:37;101243.91;;;30.10;40.73
21555;BME280;10938;44.794;-0.676;2022-10-17T02:00:09;101222.50;;;29.47;42.02
21555;BME280;10938;44.794;-0.676;2022-10-17T02:02:37;101209.50;;;29.40;42.58
21555;BME280;10938;44.794;-0.676;2022-10-17T02:05:03;101205.81;;;29.88;41.67
21555;BME280;10938;44.794;-0.676;2022-10-17T02:07:29;101181.66;;;28.28;47.20
21555;BME280;10938;44.794;-0.676;2022-10-17T02:09:54;101195.53;;;27.85;47.94
21555;BME280;10938;44.794;-0.676;2022-10-17T02:12:42;101189.19;;;28.54;46.79
21555;BME280;10938;44.794;-0.676;2022-10-17T02:18:23;101182.66;;;27.74;47.92
21555;BME280;10938;44.794;-0.676;2022-10-17T02:24:04;101165.97;;;26.96;49.84
21555;BME280;10938;44.794;-0.676;2022-10-17T02:26:38;101170.00;;;27.42;49.21
21555;BME280;10938;44.794;-0.676;2022-10-17T02:29:13;101155.56;;;27.08;49.72
21555;BME280;10938;44.794;-0.676;2022-10-17T02:31:53;101168.97;;;28.32;47.07
21555;BME280;10938;44.794;-0.676;2022-10-17T02:37:04;101129.22;;;28.05;47.41
21555;BME280;10938;44.794;-0.676;2022-10-17T02:39:31;101133.72;;;28.05;47.27
21555;BME280;10938;44.794;-0.676;2022-10-17T02:42:03;101135.78;;;28.65;45.86
21555;BME280;10938;44.794;-0.676;2022-10-17T02:44:31;101134.72;;;28.20;46.66
21555;BME280;10938;44.794;-0.676;2022-10-17T02:47:16;101140.78;;;27.89;49.04
21555;BME280;10938;44.794;-0.676;2022-10-17T02:49:48;101151.81;;;27.66;48.77
21555;BME280;10938;44.794;-0.676;2022-10-17T02:58:05;101192.97;;;28.68;47.11
21555;BME280;10938;44.794;-0.676;2022-10-17T03:00:33;101208.97;;;29.02;46.16
21555;BME280;10938;44.794;-0.676;2022-10-17T03:02:59;101225.22;;;29.77;43.82
21555;BME280;10938;44.794;-0.676;2022-10-17T03:05:27;101233.75;;;30.29;42.53
21555;BME280;10938;44.794;-0.676;2022-10-17T03:07:54;101234.97;;;30.09;42.65
21555;BME280;10938;44.794;-0.676;2022-10-17T03:10:20;101241.06;;;30.27;42.69
21555;BME280;10938;44.794;-0.676;2022-10-17T03:12:45;101237.44;;;30.72;41.85
21555;BME280;10938;44.794;-0.676;2022-10-17T03:15:11;101228.06;;;30.05;42.79
21555;BME280;10938;44.794;-0.676;2022-10-17T03:17:37;101231.09;;;29.99;42.72
21555;BME280;10938;44.794;-0.676;2022-10-17T03:20:04;101233.94;;;30.26;42.05
21555;BME280;10938;44.794;-0.676;2022-10-17T03:22:30;101235.78;;;29.96;42.66
21555;BME280;10938;44.794;-0.676;2022-10-17T03:24:55;101219.56;;;29.52;44.71
21555;BME280;10938;44.794;-0.676;2022-10-17T03:27:20;101225.38;;;28.80;46.38
21555;BME280;10938;44.794;-0.676;2022-10-17T03:29:46;101227.00;;;29.16;45.76
21555;BME280;10938;44.794;-0.676;2022-10-17T03:32:11;101251.53;;;29.56;44.78
21555;BME280;10938;44.794;-0.676;2022-10-17T03:34:37;101254.22;;;29.41;44.94
21555;BME280;10938;44.794;-0.676;2022-10-17T03:37:02;101256.25;;;29.20;45.25
21555;BME280;10938;44.794;-0.676;2022-10-17T03:39:28;101253.69;;;29.19;45.80
21555;BME280;10938;44.794;-0.676;2022-10-17T03:41:53;101238.47;;;30.55;43.45
21555;BME280;10938;44.794;-0.676;2022-10-17T03:44:18;101243.47;;;28.92;47.29
21555;BME280;10938;44.794;-0.676;2022-10-17T03:46:44;101251.72;;;28.22;49.86
21555;BME280;10938;44.794;-0.676;2022-10-17T03:49:09;101233.50;;;27.21;55.95
21555;BME280;10938;44.794;-0.676;2022-10-17T03:51:35;101254.63;;;26.49;58.27
21555;BME280;10938;44.794;-0.676;2022-10-17T03:54:01;101249.69;;;28.60;51.83
21555;BME280;10938;44.794;-0.676;2022-10-17T03:56:27;101273.88;;;26.78;57.70
21555;BME280;10938;44.794;-0.676;2022-10-17T03:58:53;101277.06;;;26.45;61.11
21555;BME280;10938;44.794;-0.676;2022-10-17T04:01:22;101267.38;;;26.83;59.48
21555;BME280;10938;44.794;-0.676;2022-10-17T04:03:53;101253.34;;;29.56;49.58
21555;BME280;10938;44.794;-0.676;2022-10-17T04:06:19;101257.91;;;29.23;50.40
21555;BME280;10938;44.794;-0.676;2022-10-17T04:08:45;101275.59;;;29.11;48.84
21555;BME280;10938;44.794;-0.676;2022-10-17T04:11:17;101284.19;;;29.96;48.43
21555;BME280;10938;44.794;-0.676;2022-10-17T04:13:43;101285.41;;;29.59;48.65
21555;BME280;10938;44.794;-0.676;2022-10-17T04:16:14;101286.53;;;29.39;49.72
21555;BME280;10938;44.794;-0.676;2022-10-17T04:18:40;101299.06;;;29.23;50.10
21555;BME280;10938;44.794;-0.676;2022-10-17T04:21:08;101301.31;;;28.65;51.11
21555;BME280;10938;44.794;-0.676;2022-10-17T04:23:34;101319.94;;;29.35;50.58
21555;BME280;10938;44.794;-0.676;2022-10-17T04:26:00;101310.31;;;28.64;51.77
21555;BME280;10938;44.794;-0.676;2022-10-17T04:28:27;101304.56;;;28.37;53.14
21555;BME280;10938;44.794;-0.676;2022-10-17T04:31:00;101319.59;;;28.05;55.18
21555;BME280;10938;44.794;-0.676;2022-10-17T04:33:26;101323.34;;;28.89;51.88
21555;BME280;10938;44.794;-0.676;2022-10-17T04:35:59;101324.44;;;29.02;51.59
21555;BME280;10938;44.794;-0.676;2022-10-17T04:38:25;101332.41;;;28.86;51.39
21555;BME280;10938;44.794;-0.676;2022-10-17T04:40:51;101342.16;;;28.72;51.96
21555;BME280;10938;44.794;-0.676;2022-10-17T04:43:16;101347.47;;;28.20;52.32
21555;BME280;10938;44.794;-0.676;2022-10-17T04:45:43;101368.84;;;28.03;52.79
21555;BME280;10938;44.794;-0.676;2022-10-17T04:48:09;101376.56;;;28.10;53.26
21555;BME280;10938;44.794;-0.676;2022-10-17T04:50:34;101365.16;;;27.31;57.45
21555;BME280;10938;44.794;-0.676;2022-10-17T04:53:00;101381.34;;;27.67;56.21
21555;BME280;10938;44.794;-0.676;2022-10-17T04:55:25;101385.16;;;27.22;56.69
21555;BME280;10938;44.794;-0.676;2022-10-17T04:57:51;101393.44;;;27.56;55.97
21555;BME280;10938;44.794;-0.676;2022-10-17T05:00:16;101402.47;;;28.29;53.89
21555;BME280;10938;44.794;-0.676;2022-10-17T05:02:42;101400.22;;;28.38;53.17
21555;BME280;10938;44.794;-0.676;2022-10-17T05:05:07;101387.06;;;28.15;53.70
21555;BME280;10938;44.794;-0.676;2022-10-17T05:07:33;101377.34;;;27.94;54.52
21555;BME280;10938;44.794;-0.676;2022-10-17T05:09:58;101373.22;;;28.05;54.77
21555;BME280;10938;44.794;-0.676;2022-10-17T05:12:24;101389.16;;;27.71;53.75
21555;BME280;10938;44.794;-0.676;2022-10-17T05:14:49;101401.25;;;27.98;53.50
21555;BME280;10938;44.794;-0.676;2022-10-17T05:17:15;101404.44;;;27.30;53.00
21555;BME280;10938;44.794;-0.676;2022-10-17T05:19:41;101411.91;;;26.83;54.47
21555;BME280;10938;44.794;-0.676;2022-10-17T05:22:06;101417.34;;;27.02;53.92
21555;BME280;10938;44.794;-0.676;2022-10-17T05:24:34;101426.03;;;28.03;51.82
21555;BME280;10938;44.794;-0.676;2022-10-17T05:26:59;101430.50;;;28.03;51.61
21555;BME280;10938;44.794;-0.676;2022-10-17T05:29:26;101430.13;;;28.12;51.48
21555;BME280;10938;44.794;-0.676;2022-10-17T05:31:51;101436.88;;;27.63;53.32
21555;BME280;10938;44.794;-0.676;2022-10-17T05:34:16;101426.75;;;27.70;54.77
21555;BME280;10938;44.794;-0.676;2022-10-17T05:36:42;101428.84;;;27.44;53.99
21555;BME280;10938;44.794;-0.676;2022-10-17T05:39:07;101434.72;;;26.28;55.23
21555;BME280;10938;44.794;-0.676;2022-10-17T05:41:33;101451.91;;;27.06;55.47
21555;BME280;10938;44.794;-0.676;2022-10-17T05:43:58;101446.09;;;27.37;54.06
21555;BME280;10938;44.794;-0.676;2022-10-17T05:46:24;101449.69;;;27.16;53.71
21555;BME280;10938;44.794;-0.676;2022-10-17T05:48:49;101446.75;;;27.81;52.81
21555;BME280;10938;44.794;-0.676;2022-10-17T05:51:15;101446.69;;;28.20;51.57
21555;BME280;10938;44.794;-0.676;2022-10-17T05:53:41;101437.44;;;28.44;51.07
21555;BME280;10938;44.794;-0.676;2022-10-17T05:56:09;101440.19;;;28.43;51.11
21555;BME280;10938;44.794;-0.676;2022-10-17T05:58:35;101426.53;;;29.00;50.83
21555;BME280;10938;44.794;-0.676;2022-10-17T06:01:05;101421.94;;;28.15;51.76
21555;BME280;10938;44.794;-0.676;2022-10-17T06:03:32;101424.22;;;26.66;56.80
21555;BME280;10938;44.794;-0.676;2022-10-17T06:06:09;101429.25;;;26.73;58.45
21555;BME280;10938;44.794;-0.676;2022-10-17T06:08:35;101424.88;;;26.29;59.00
21555;BME280;10938;44.794;-0.676;2022-10-17T06:11:00;101429.06;;;25.43;62.05
21555;BME280;10938;44.794;-0.676;2022-10-17T06:13:26;101421.84;;;25.93;62.26
21555;BME280;10938;44.794;-0.676;2022-10-17T06:15:51;101419.53;;;25.84;63.16
21555;BME280;10938;44.794;-0.676;2022-10-17T06:25:38;101419.78;;;27.06;59.01
21555;BME280;10938;44.794;-0.676;2022-10-17T06:28:04;101431.50;;;27.24;57.86
21555;BME280;10938;44.794;-0.676;2022-10-17T06:30:29;101437.06;;;27.20;56.07
21555;BME280;10938;44.794;-0.676;2022-10-17T06:32:55;101438.19;;;28.29;55.22
21555;BME280;10938;44.794;-0.676;2022-10-17T06:35:21;101452.31;;;27.58;57.16
21555;BME280;10938;44.794;-0.676;2022-10-17T06:37:47;101460.81;;;28.05;54.88
21555;BME280;10938;44.794;-0.676;2022-10-17T06:42:36;101453.63;;;27.87;54.39
21555;BME280;10938;44.794;-0.676;2022-10-17T06:49:08;101440.47;;;28.20;54.11
21555;BME280;10938;44.794;-0.676;2022-10-17T06:51:47;101445.72;;;28.76;52.89
21555;BME280;10938;44.794;-0.676;2022-10-17T06:54:32;101459.91;;;28.60;52.35
21555;BME280;10938;44.794;-0.676;2022-10-17T06:56:58;101459.31;;;28.54;52.67
21555;BME280;10938;44.794;-0.676;2022-10-17T06:59:39;101470.88;;;29.26;51.16
21555;BME280;10938;44.794;-0.676;2022-10-17T07:02:14;101468.72;;;28.62;52.24
21555;BME280;10938;44.794;-0.676;2022-10-17T07:04:39;101467.13;;;28.77;51.38
21555;BME280;10938;44.794;-0.676;2022-10-17T07:07:05;101457.06;;;28.09;52.57
21555;BME280;10938;44.794;-0.676;2022-10-17T07:09:31;101466.59;;;27.96;54.66
21555;BME280;10938;44.794;-0.676;2022-10-17T07:11:57;101475.16;;;28.23;54.31
21555;BME280;10938;44.794;-0.676;2022-10-17T07:14:23;101482.13;;;28.27;53.81
21555;BME280;10938;44.794;-0.676;2022-10-17T07:16:56;101477.44;;;28.32;53.50
21555;BME280;10938;44.794;-0.676;2022-10-17T07:19:22;101474.25;;;28.59;52.51
21555;BME280;10938;44.794;-0.676;2022-10-17T07:21:47;101472.13;;;28.85;51.74
21555;BME280;10938;44.794;-0.676;2022-10-17T07:24:13;101480.56;;;28.94;51.45
21555;BME280;10938;44.794;-0.676;2022-10-17T07:26:40;101489.50;;;29.46;50.98
21555;BME280;10938;44.794;-0.676;2022-10-17T07:29:05;101485.22;;;29.08;52.53
21555;BME280;10938;44.794;-0.676;2022-10-17T07:31:32;101492.09;;;27.86;55.51
21555;BME280;10938;44.794;-0.676;2022-10-17T07:34:00;101496.78;;;28.38;54.16
21555;BME280;10938;44.794;-0.676;2022-10-17T07:36:25;101508.09;;;28.45;54.30
21555;BME280;10938;44.794;-0.676;2022-10-17T07:38:51;101522.69;;;28.00;54.29
21555;BME280;10938;44.794;-0.676;2022-10-17T07:41:18;101520.88;;;28.21;53.46
21555;BME280;10938;44.794;-0.676;2022-10-17T07:43:44;101515.06;;;27.52;54.73
21555;BME280;10938;44.794;-0.676;2022-10-17T07:46:10;101526.69;;;27.11;56.88
21555;BME280;10938;44.794;-0.676;2022-10-17T07:48:37;101517.50;;;26.96;58.77
21555;BME280;10938;44.794;-0.676;2022-10-17T07:51:09;101516.34;;;26.82;61.45
21555;BME280;10938;44.794;-0.676;2022-10-17T07:53:37;101514.47;;;26.84;61.84
21555;BME280;10938;44.794;-0.676;2022-10-17T07:56:07;101516.59;;;26.52;61.88
21555;BME280;10938;44.794;-0.676;2022-10-17T07:58:34;101522.09;;;30.06;59.89
21555;BME280;10938;44.794;-0.676;2022-10-17T08:01:03;101528.38;;;28.50;59.93
21555;BME280;10938;44.794;-0.676;2022-10-17T08:03:29;101517.38;;;27.40;60.58
21555;BME280;10938;44.794;-0.676;2022-10-17T08:05:58;101516.25;;;27.05;61.07
21555;BME280;10938;44.794;-0.676;2022-10-17T08:08:25;101511.56;;;27.30;59.89
21555;BME280;10938;44.794;-0.676;2022-10-17T08:10:52;101513.22;;;27.54;60.54
21555;BME280;10938;44.794;-0.676;2022-10-17T08:13:20;101517.78;;;27.10;60.75
21555;BME280;10938;44.794;-0.676;2022-10-17T08:15:45;101525.56;;;27.37;59.89
21555;BME280;10938;44.794;-0.676;2022-10-17T08:18:13;101519.69;;;26.87;60.69
21555;BME280;10938;44.794;-0.676;2022-10-17T08:20:39;101516.47;;;26.55;61.93
21555;BME280;10938;44.794;-0.676;2022-10-17T08:23:04;101517.03;;;26.20;61.76
21555;BME280;10938;44.794;-0.676;2022-10-17T08:25:30;101500.03;;;25.98;61.96
21555;BME280;10938;44.794;-0.676;2022-10-17T08:27:56;101508.41;;;27.00;61.93
21555;BME280;10938;44.794;-0.676;2022-10-17T08:30:22;101505.09;;;26.72;60.70
21555;BME280;10938;44.794;-0.676;2022-10-17T08:32:47;101499.44;;;26.13;60.64
21555;BME280;10938;44.794;-0.676;2022-10-17T08:35:13;101494.59;;;25.53;63.14
21555;BME280;10938;44.794;-0.676;2022-10-17T08:37:39;101490.63;;;25.88;61.33
21555;BME280;10938;44.794;-0.676;2022-10-17T08:40:05;101495.00;;;25.66;62.74
21555;BME280;10938;44.794;-0.676;2022-10-17T08:42:47;101498.88;;;26.93;62.81
21555;BME280;10938;44.794;-0.676;2022-10-17T08:48:00;101497.09;;;26.50;62.53
21555;BME280;10938;44.794;-0.676;2022-10-17T08:50:40;101501.84;;;27.07;62.20
21555;BME280;10938;44.794;-0.676;2022-10-17T08:55:52;101517.22;;;27.44;61.99
21555;BME280;10938;44.794;-0.676;2022-10-17T08:58:23;101510.09;;;27.43;60.56
21555;BME280;10938;44.794;-0.676;2022-10-17T09:07:12;101502.06;;;27.63;60.66
21555;BME280;10938;44.794;-0.676;2022-10-17T09:15:11;101506.88;;;26.95;60.72
21555;BME280;10938;44.794;-0.676;2022-10-17T09:17:52;101505.56;;;26.61;61.49
21555;BME280;10938;44.794;-0.676;2022-10-17T09:20:27;101499.56;;;26.33;61.32
21555;BME280;10938;44.794;-0.676;2022-10-17T09:23:01;101493.41;;;26.31;62.44
21555;BME280;10938;44.794;-0.676;2022-10-17T09:25:34;101485.72;;;25.99;61.44
21555;BME280;10938;44.794;-0.676;2022-10-17T09:33:32;101498.00;;;26.93;62.21
21555;BME280;10938;44.794;-0.676;2022-10-17T09:35:59;101496.56;;;26.62;62.83
21555;BME280;10938;44.794;-0.676;2022-10-17T09:38:33;101497.25;;;27.11;63.21
21555;BME280;10938;44.794;-0.676;2022-10-17T09:41:01;101502.97;;;27.42;61.46
21555;BME280;10938;44.794;-0.676;2022-10-17T09:43:27;101517.00;;;27.29;60.09
21555;BME280;10938;44.794;-0.676;2022-10-17T09:46:06;101515.34;;;28.24;61.10
21555;BME280;10938;44.794;-0.676;2022-10-17T09:48:37;101516.94;;;28.09;60.91
21555;BME280;10938;44.794;-0.676;2022-10-17T09:51:05;101507.13;;;27.29;60.04
21555;BME280;10938;44.794;-0.676;2022-10-17T09:53:40;101511.69;;;27.88;58.02
21555;BME280;10938;44.794;-0.676;2022-10-17T09:56:12;101507.56;;;28.55;58.80
21555;BME280;10938;44.794;-0.676;2022-10-17T09:58:49;101505.78;;;29.43;57.33
21555;BME280;10938;44.794;-0.676;2022-10-17T10:01:26;101508.97;;;28.45;57.71
21555;BME280;10938;44.794;-0.676;2022-10-17T10:04:13;101511.25;;;28.72;59.88
21555;BME280;10938;44.794;-0.676;2022-10-17T10:06:41;101513.56;;;28.60;58.75
21555;BME280;10938;44.794;-0.676;2022-10-17T10:09:26;101509.97;;;28.43;58.69
21555;BME280;10938;44.794;-0.676;2022-10-17T10:11:57;101513.63;;;28.78;57.34
21555;BME280;10938;44.794;-0.676;2022-10-17T10:14:30;101509.47;;;29.24;55.96
21555;BME280;10938;44.794;-0.676;2022-10-17T10:16:58;101511.00;;;29.12;56.97
21555;BME280;10938;44.794;-0.676;2022-10-17T10:19:33;101509.28;;;28.56;57.00
21555;BME280;10938;44.794;-0.676;2022-10-17T10:24:27;101507.63;;;28.54;56.31
21555;BME280;10938;44.794;-0.676;2022-10-17T10:27:02;101511.75;;;28.97;55.20
21555;BME280;10938;44.794;-0.676;2022-10-17T10:29:38;101517.50;;;28.72;53.89
21555;BME280;10938;44.794;-0.676;2022-10-17T10:32:21;101507.50;;;29.10;52.75
21555;BME280;10938;44.794;-0.676;2022-10-17T10:37:27;101522.84;;;30.56;51.86
21555;BME280;10938;44.794;-0.676;2022-10-17T10:39:54;101522.63;;;29.97;50.36
21555;BME280;10938;44.794;-0.676;2022-10-17T10:42:31;101528.78;;;28.04;54.39
21555;BME280;10938;44.794;-0.676;2022-10-17T10:45:16;101520.84;;;28.58;54.24
21555;BME280;10938;44.794;-0.676;2022-10-17T10:47:53;101526.31;;;29.10;52.41
21555;BME280;10938;44.794;-0.676;2022-10-17T10:53:37;101522.19;;;29.72;51.38
21555;BME280;10938;44.794;-0.676;2022-10-17T10:55:44;101534.22;;;29.47;53.02
21555;BME280;10938;44.794;-0.676;2022-10-17T11:01:05;101524.56;;;28.92;52.86
21555;BME280;10938;44.794;-0.676;2022-10-17T11:06:29;101528.09;;;28.92;52.86
21555;BME280;10938;44.794;-0.676;2022-10-17T11:12:05;101543.03;;;30.01;52.86
21555;BME280;10938;44.794;-0.676;2022-10-17T11:14:43;101545.38;;;30.23;49.78
21555;BME280;10938;44.794;-0.676;2022-10-17T11:17:31;101537.16;;;30.73;50.01
21555;BME280;10938;44.794;-0.676;2022-10-17T11:22:48;101539.50;;;30.32;50.95
21555;BME280;10938;44.794;-0.676;2022-10-17T11:25:35;101537.97;;;30.43;49.68
21555;BME280;10938;44.794;-0.676;2022-10-17T11:28:02;101530.78;;;29.95;49.32
21555;BME280;10938;44.794;-0.676;2022-10-17T11:30:40;101544.06;;;29.81;51.51
21555;BME280;10938;44.794;-0.676;2022-10-17T11:33:11;101554.78;;;30.62;52.90
21555;BME280;10938;44.794;-0.676;2022-10-17T11:35:42;101540.88;;;30.23;51.81
21555;BME280;10938;44.794;-0.676;2022-10-17T11:38:44;101529.63;;;30.32;47.44
21555;BME280;10938;44.794;-0.676;2022-10-17T11:41:20;101534.84;;;30.51;50.18
21555;BME280;10938;44.794;-0.676;2022-10-17T11:46:27;101540.22;;;32.42;47.99
21555;BME280;10938;44.794;-0.676;2022-10-17T11:49:15;101544.28;;;31.79;44.29
21555;BME280;10938;44.794;-0.676;2022-10-17T11:55:23;101531.53;;;30.61;45.67
21555;BME280;10938;44.794;-0.676;2022-10-17T11:58:05;101526.19;;;29.97;49.28
21555;BME280;10938;44.794;-0.676;2022-10-17T12:01:11;101523.66;;;30.10;48.77
21555;BME280;10938;44.794;-0.676;2022-10-17T12:09:30;101521.75;;;29.96;49.28
21555;BME280;10938;44.794;-0.676;2022-10-17T12:11:58;101518.34;;;29.93;48.77
21555;BME280;10938;44.794;-0.676;2022-10-17T12:14:46;101518.84;;;29.84;47.60
21555;BME280;10938;44.794;-0.676;2022-10-17T12:17:44;101516.31;;;31.22;45.69
21555;BME280;10938;44.794;-0.676;2022-10-17T12:25:23;101515.94;;;31.28;44.43
21555;BME280;10938;44.794;-0.676;2022-10-17T12:30:26;101526.34;;;32.20;44.49
21555;BME280;10938;44.794;-0.676;2022-10-17T12:35:28;101505.63;;;31.20;46.39
21555;BME280;10938;44.794;-0.676;2022-10-17T12:43:02;101523.84;;;31.60;43.46
21555;BME280;10938;44.794;-0.676;2022-10-17T12:48:33;101517.94;;;31.96;44.73
21555;BME280;10938;44.794;-0.676;2022-10-17T12:56:28;101506.53;;;31.79;41.28
21555;BME280;10938;44.794;-0.676;2022-10-17T12:58:56;101506.06;;;31.42;43.04
21555;BME280;10938;44.794;-0.676;2022-10-17T13:01:28;101498.63;;;31.46;43.69
21555;BME280;10938;44.794;-0.676;2022-10-17T13:03:55;101490.44;;;31.19;42.98
21555;BME280;10938;44.794;-0.676;2022-10-17T13:06:25;101497.16;;;32.53;41.97
21555;BME280;10938;44.794;-0.676;2022-10-17T13:09:04;101498.22;;;31.82;43.41
21555;BME280;10938;44.794;-0.676;2022-10-17T13:11:32;101494.16;;;32.17;42.22
21555;BME280;10938;44.794;-0.676;2022-10-17T13:14:01;101485.13;;;31.18;42.48
21555;BME280;10938;44.794;-0.676;2022-10-17T13:16:38;101488.28;;;31.54;40.75
21555;BME280;10938;44.794;-0.676;2022-10-17T13:19:15;101488.28;;;31.54;42.33
21555;BME280;10938;44.794;-0.676;2022-10-17T13:24:41;101490.50;;;32.18;40.93
21555;BME280;10938;44.794;-0.676;2022-10-17T13:29:46;101476.91;;;32.20;39.27
21555;BME280;10938;44.794;-0.676;2022-10-17T13:32:11;101478.75;;;32.19;41.83
21555;BME280;10938;44.794;-0.676;2022-10-17T13:34:36;101480.69;;;32.44;38.57
21555;BME280;10938;44.794;-0.676;2022-10-17T13:37:06;101484.38;;;32.70;38.24
21555;BME280;10938;44.794;-0.676;2022-10-17T13:39:39;101479.41;;;32.63;39.77
21555;BME280;10938;44.794;-0.676;2022-10-17T13:42:12;101483.94;;;31.94;40.78
21555;BME280;10938;44.794;-0.676;2022-10-17T13:44:39;101485.97;;;32.59;41.20
21555;BME280;10938;44.794;-0.676;2022-10-17T13:47:05;101475.47;;;32.55;39.41
21555;BME280;10938;44.794;-0.676;2022-10-17T13:49:38;101475.81;;;33.42;39.21
21555;BME280;10938;44.794;-0.676;2022-10-17T13:52:12;101470.34;;;32.64;39.01
21555;BME280;10938;44.794;-0.676;2022-10-17T13:54:44;101472.53;;;33.49;37.43
21555;BME280;10938;44.794;-0.676;2022-10-17T13:59:45;101484.31;;;33.23;38.50
21555;BME280;10938;44.794;-0.676;2022-10-17T14:02:33;101483.94;;;33.67;37.23
21555;BME280;10938;44.794;-0.676;2022-10-17T14:04:59;101489.03;;;33.07;39.15
21555;BME280;10938;44.794;-0.676;2022-10-17T14:10:04;101481.22;;;33.42;38.60
21555;BME280;10938;44.794;-0.676;2022-10-17T14:12:32;101485.81;;;34.03;36.76
21555;BME280;10938;44.794;-0.676;2022-10-17T14:15:01;101494.13;;;34.38;37.47
21555;BME280;10938;44.794;-0.676;2022-10-17T14:17:29;101483.94;;;35.12;36.92
21555;BME280;10938;44.794;-0.676;2022-10-17T14:19:57;101482.25;;;34.99;37.47
21555;BME280;10938;44.794;-0.676;2022-10-17T14:22:28;101485.50;;;32.80;40.02
21555;BME280;10938;44.794;-0.676;2022-10-17T14:24:54;101479.94;;;32.95;39.00
21555;BME280;10938;44.794;-0.676;2022-10-17T14:29:52;101476.56;;;33.82;38.51
21555;BME280;10938;44.794;-0.676;2022-10-17T14:32:19;101482.19;;;33.53;39.23
21555;BME280;10938;44.794;-0.676;2022-10-17T14:34:45;101477.00;;;33.38;38.60
21555;BME280;10938;44.794;-0.676;2022-10-17T14:37:41;101480.69;;;33.75;38.91
21555;BME280;10938;44.794;-0.676;2022-10-17T14:40:20;101480.25;;;33.81;38.04
21555;BME280;10938;44.794;-0.676;2022-10-17T14:42:48;101480.28;;;33.03;38.38
21555;BME280;10938;44.794;-0.676;2022-10-17T14:47:49;101479.69;;;32.32;39.77
21555;BME280;10938;44.794;-0.676;2022-10-17T14:50:24;101476.22;;;33.99;37.39
21555;BME280;10938;44.794;-0.676;2022-10-17T14:53:17;101474.19;;;33.00;38.68
21555;BME280;10938;44.794;-0.676;2022-10-17T14:55:56;101471.84;;;35.17;36.15
21555;BME280;10938;44.794;-0.676;2022-10-17T14:58:31;101478.94;;;33.86;37.24
21555;BME280;10938;44.794;-0.676;2022-10-17T15:00:58;101467.34;;;33.97;36.87
21555;BME280;10938;44.794;-0.676;2022-10-17T15:03:24;101468.78;;;33.39;38.40
21555;BME280;10938;44.794;-0.676;2022-10-17T15:06:08;101477.16;;;33.09;38.70
21555;BME280;10938;44.794;-0.676;2022-10-17T15:08:46;101481.81;;;34.08;36.87
21555;BME280;10938;44.794;-0.676;2022-10-17T15:11:13;101484.19;;;34.62;37.30
21555;BME280;10938;44.794;-0.676;2022-10-17T15:13:39;101495.44;;;35.03;36.57